sensor_id;sensor_type;location;lat;lon;timestamp;P1;durP1;ratioP1;P2;durP2;ratioP2
65035;SDS011;51603;49.300;8.880;2022-11-20T00:00:34;26.40;;;18.47;;
65035;SDS011;51603;49.300;8.880;2022-11-20T00:03:00;21.90;;;17.20;;
65035;SDS011;51603;49.300;8.880;2022-11-20T00:05:25;26.07;;;17.70;;
65035;SDS011;51603;49.300;8.880;2022-11-20T00:07:51;22.27;;;17.77;;
65035;SDS011;51603;49.300;8.880;2022-11-20T00:10:16;24.23;;;18.03;;
65035;SDS011;51603;49.300;8.880;2022-11-20T00:12:42;20.90;;;16.73;;
65035;SDS011;51603;49.300;8.880;2022-11-20T00:15:07;26.77;;;17.47;;
65035;SDS011;51603;49.300;8.880;2022-11-20T00:17:33;22.00;;;16.43;;
65035;SDS011;51603;49.300;8.880;2022-11-20T00:19:59;23.90;;;16.70;;
65035;SDS011;51603;49.300;8.880;2022-11-20T00:22:24;19.07;;;15.40;;
65035;SDS011;51603;49.300;8.880;2022-11-20T00:24:50;21.90;;;17.63;;
65035;SDS011;51603;49.300;8.880;2022-11-20T00:27:15;19.90;;;17.17;;
65035;SDS011;51603;49.300;8.880;2022-11-20T00:29:41;22.70;;;17.40;;
65035;SDS011;51603;49.300;8.880;2022-11-20T00:32:06;21.03;;;15.80;;
65035;SDS011;51603;49.300;8.880;2022-11-20T00:34:32;20.47;;;16.10;;
65035;SDS011;51603;49.300;8.880;2022-11-20T00:36:58;20.43;;;15.57;;
65035;SDS011;51603;49.300;8.880;2022-11-20T00:39:23;25.80;;;18.40;;
65035;SDS011;51603;49.300;8.880;2022-11-20T00:41:49;23.90;;;18.30;;
65035;SDS011;51603;49.300;8.880;2022-11-20T00:44:15;21.47;;;16.40;;
65035;SDS011;51603;49.300;8.880;2022-11-20T00:46:40;21.10;;;16.43;;
65035;SDS011;51603;49.300;8.880;2022-11-20T00:49:06;21.93;;;16.83;;
65035;SDS011;51603;49.300;8.880;2022-11-20T00:51:31;22.80;;;18.10;;
65035;SDS011;51603;49.300;8.880;2022-11-20T00:53:57;20.27;;;15.50;;
65035;SDS011;51603;49.300;8.880;2022-11-20T00:56:24;24.70;;;18.07;;
65035;SDS011;51603;49.300;8.880;2022-11-20T00:58:50;20.60;;;14.93;;
65035;SDS011;51603;49.300;8.880;2022-11-20T01:01:20;24.27;;;17.77;;
65035;SDS011;51603;49.300;8.880;2022-11-20T01:03:49;24.20;;;16.70;;
65035;SDS011;51603;49.300;8.880;2022-11-20T01:06:20;21.23;;;16.13;;
65035;SDS011;51603;49.300;8.880;2022-11-20T01:08:48;22.60;;;16.83;;
65035;SDS011;51603;49.300;8.880;2022-11-20T01:11:18;22.47;;;16.73;;
65035;SDS011;51603;49.300;8.880;2022-11-20T01:13:46;24.50;;;19.20;;
65035;SDS011;51603;49.300;8.880;2022-11-20T01:16:23;22.33;;;16.33;;
65035;SDS011;51603;49.300;8.880;2022-11-20T01:18:51;21.37;;;16.70;;
65035;SDS011;51603;49.300;8.880;2022-11-20T01:21:20;24.87;;;17.87;;
65035;SDS011;51603;49.300;8.880;2022-11-20T01:24:05;22.43;;;16.60;;
65035;SDS011;51603;49.300;8.880;2022-11-20T01:26:34;25.30;;;17.50;;
65035;SDS011;51603;49.300;8.880;2022-11-20T01:29:01;22.43;;;17.13;;
65035;SDS011;51603;49.300;8.880;2022-11-20T01:31:34;22.80;;;17.33;;
65035;SDS011;51603;49.300;8.880;2022-11-20T01:34:05;25.97;;;18.30;;
65035;SDS011;51603;49.300;8.880;2022-11-20T01:36:34;34.30;;;20.47;;
65035;SDS011;51603;49.300;8.880;2022-11-20T01:39:03;27.63;;;17.93;;
65035;SDS011;51603;49.300;8.880;2022-11-20T01:41:30;28.30;;;19.30;;
65035;SDS011;51603;49.300;8.880;2022-11-20T01:44:16;34.90;;;21.17;;
65035;SDS011;51603;49.300;8.880;2022-11-20T01:46:55;27.73;;;17.80;;
65035;SDS011;51603;49.300;8.880;2022-11-20T01:49:30;27.90;;;19.80;;
65035;SDS011;51603;49.300;8.880;2022-11-20T01:52:17;29.03;;;20.43;;
65035;SDS011;51603;49.300;8.880;2022-11-20T01:54:56;25.60;;;17.90;;
65035;SDS011;51603;49.300;8.880;2022-11-20T01:57:29;25.73;;;17.97;;
65035;SDS011;51603;49.300;8.880;2022-11-20T02:00:00;27.20;;;19.40;;
65035;SDS011;51603;49.300;8.880;2022-11-20T02:03:09;27.80;;;18.67;;
65035;SDS011;51603;49.300;8.880;2022-11-20T02:05:39;27.83;;;19.77;;
65035;SDS011;51603;49.300;8.880;2022-11-20T02:08:23;23.70;;;17.23;;
65035;SDS011;51603;49.300;8.880;2022-11-20T02:10:48;26.67;;;18.77;;
65035;SDS011;51603;49.300;8.880;2022-11-20T02:13:14;24.10;;;16.90;;
65035;SDS011;51603;49.300;8.880;2022-11-20T02:15:59;23.23;;;17.03;;
65035;SDS011;51603;49.300;8.880;2022-11-20T02:18:25;23.77;;;18.03;;
65035;SDS011;51603;49.300;8.880;2022-11-20T02:20:53;23.43;;;17.13;;
65035;SDS011;51603;49.300;8.880;2022-11-20T02:23:39;29.30;;;20.23;;
65035;SDS011;51603;49.300;8.880;2022-11-20T02:26:28;26.23;;;17.40;;
65035;SDS011;51603;49.300;8.880;2022-11-20T02:28:56;26.90;;;19.77;;
65035;SDS011;51603;49.300;8.880;2022-11-20T02:31:24;27.07;;;20.97;;
65035;SDS011;51603;49.300;8.880;2022-11-20T02:33:54;28.07;;;19.37;;
65035;SDS011;51603;49.300;8.880;2022-11-20T02:36:23;42.73;;;27.67;;
65035;SDS011;51603;49.300;8.880;2022-11-20T02:38:51;28.57;;;20.57;;
65035;SDS011;51603;49.300;8.880;2022-11-20T02:41:16;27.47;;;18.10;;
65035;SDS011;51603;49.300;8.880;2022-11-20T02:43:42;32.57;;;21.27;;
65035;SDS011;51603;49.300;8.880;2022-11-20T02:46:08;28.57;;;18.60;;
65035;SDS011;51603;49.300;8.880;2022-11-20T02:48:33;25.00;;;18.37;;
65035;SDS011;51603;49.300;8.880;2022-11-20T02:50:59;30.07;;;19.50;;
65035;SDS011;51603;49.300;8.880;2022-11-20T02:53:25;33.23;;;20.60;;
65035;SDS011;51603;49.300;8.880;2022-11-20T02:55:51;27.77;;;20.37;;
65035;SDS011;51603;49.300;8.880;2022-11-20T02:58:16;24.83;;;18.50;;
65035;SDS011;51603;49.300;8.880;2022-11-20T03:00:42;23.73;;;17.97;;
65035;SDS011;51603;49.300;8.880;2022-11-20T03:03:07;27.67;;;19.97;;
65035;SDS011;51603;49.300;8.880;2022-11-20T03:05:33;25.10;;;18.77;;
65035;SDS011;51603;49.300;8.880;2022-11-20T03:07:58;25.00;;;18.20;;
65035;SDS011;51603;49.300;8.880;2022-11-20T03:10:24;32.90;;;22.10;;
65035;SDS011;51603;49.300;8.880;2022-11-20T03:12:56;40.10;;;24.57;;
65035;SDS011;51603;49.300;8.880;2022-11-20T03:15:22;27.60;;;19.17;;
65035;SDS011;51603;49.300;8.880;2022-11-20T03:17:48;40.33;;;22.43;;
65035;SDS011;51603;49.300;8.880;2022-11-20T03:20:14;26.57;;;18.70;;
65035;SDS011;51603;49.300;8.880;2022-11-20T03:22:39;26.00;;;18.40;;
65035;SDS011;51603;49.300;8.880;2022-11-20T03:25:05;29.20;;;18.80;;
65035;SDS011;51603;49.300;8.880;2022-11-20T03:27:32;23.10;;;17.57;;
65035;SDS011;51603;49.300;8.880;2022-11-20T03:29:59;26.23;;;17.73;;
65035;SDS011;51603;49.300;8.880;2022-11-20T03:32:24;23.57;;;17.10;;
65035;SDS011;51603;49.300;8.880;2022-11-20T03:34:50;21.17;;;17.00;;
65035;SDS011;51603;49.300;8.880;2022-11-20T03:37:15;22.90;;;16.93;;
65035;SDS011;51603;49.300;8.880;2022-11-20T03:39:41;28.50;;;19.50;;
65035;SDS011;51603;49.300;8.880;2022-11-20T03:42:07;23.30;;;16.50;;
65035;SDS011;51603;49.300;8.880;2022-11-20T03:44:53;30.60;;;20.17;;
65035;SDS011;51603;49.300;8.880;2022-11-20T03:47:19;26.00;;;18.23;;
65035;SDS011;51603;49.300;8.880;2022-11-20T03:49:45;26.97;;;19.07;;
65035;SDS011;51603;49.300;8.880;2022-11-20T03:52:10;32.53;;;20.30;;
65035;SDS011;51603;49.300;8.880;2022-11-20T03:54:36;26.43;;;18.80;;
65035;SDS011;51603;49.300;8.880;2022-11-20T03:57:01;25.67;;;17.77;;
65035;SDS011;51603;49.300;8.880;2022-11-20T03:59:27;27.73;;;19.87;;
65035;SDS011;51603;49.300;8.880;2022-11-20T04:01:52;26.40;;;17.60;;
65035;SDS011;51603;49.300;8.880;2022-11-20T04:04:18;27.37;;;17.93;;
65035;SDS011;51603;49.300;8.880;2022-11-20T04:06:43;28.47;;;18.83;;
65035;SDS011;51603;49.300;8.880;2022-11-20T04:09:09;30.67;;;22.00;;
65035;SDS011;51603;49.300;8.880;2022-11-20T04:11:35;32.77;;;21.93;;
65035;SDS011;51603;49.300;8.880;2022-11-20T04:14:03;30.13;;;20.77;;
65035;SDS011;51603;49.300;8.880;2022-11-20T04:16:32;36.27;;;22.80;;
65035;SDS011;51603;49.300;8.880;2022-11-20T04:19:02;28.00;;;20.13;;
65035;SDS011;51603;49.300;8.880;2022-11-20T04:21:29;31.93;;;22.90;;
65035;SDS011;51603;49.300;8.880;2022-11-20T04:23:55;30.37;;;21.40;;
65035;SDS011;51603;49.300;8.880;2022-11-20T04:26:22;27.03;;;19.40;;
65035;SDS011;51603;49.300;8.880;2022-11-20T04:28:49;24.90;;;17.20;;
65035;SDS011;51603;49.300;8.880;2022-11-20T04:31:20;29.37;;;21.00;;
65035;SDS011;51603;49.300;8.880;2022-11-20T04:33:47;29.47;;;20.97;;
65035;SDS011;51603;49.300;8.880;2022-11-20T04:36:14;29.97;;;20.43;;
65035;SDS011;51603;49.300;8.880;2022-11-20T04:38:44;23.47;;;18.73;;
65035;SDS011;51603;49.300;8.880;2022-11-20T04:41:17;24.60;;;20.43;;
65035;SDS011;51603;49.300;8.880;2022-11-20T04:43:51;29.37;;;19.93;;
65035;SDS011;51603;49.300;8.880;2022-11-20T04:46:19;30.33;;;20.93;;
65035;SDS011;51603;49.300;8.880;2022-11-20T04:48:45;31.93;;;21.40;;
65035;SDS011;51603;49.300;8.880;2022-11-20T04:51:11;31.33;;;20.43;;
65035;SDS011;51603;49.300;8.880;2022-11-20T04:53:37;27.57;;;20.93;;
65035;SDS011;51603;49.300;8.880;2022-11-20T04:56:04;26.40;;;19.57;;
65035;SDS011;51603;49.300;8.880;2022-11-20T04:58:31;21.27;;;16.00;;
65035;SDS011;51603;49.300;8.880;2022-11-20T05:01:04;31.77;;;23.20;;
65035;SDS011;51603;49.300;8.880;2022-11-20T05:03:44;35.63;;;26.83;;
65035;SDS011;51603;49.300;8.880;2022-11-20T05:06:11;27.90;;;20.83;;
65035;SDS011;51603;49.300;8.880;2022-11-20T05:08:37;31.47;;;22.60;;
65035;SDS011;51603;49.300;8.880;2022-11-20T05:11:04;24.30;;;19.03;;
65035;SDS011;51603;49.300;8.880;2022-11-20T05:13:32;23.93;;;18.67;;
65035;SDS011;51603;49.300;8.880;2022-11-20T05:16:01;35.60;;;22.53;;
65035;SDS011;51603;49.300;8.880;2022-11-20T05:18:31;42.80;;;27.20;;
65035;SDS011;51603;49.300;8.880;2022-11-20T05:20:57;26.03;;;16.40;;
65035;SDS011;51603;49.300;8.880;2022-11-20T05:23:23;24.50;;;18.60;;
65035;SDS011;51603;49.300;8.880;2022-11-20T05:25:54;22.27;;;17.20;;
65035;SDS011;51603;49.300;8.880;2022-11-20T05:28:20;24.13;;;18.20;;
65035;SDS011;51603;49.300;8.880;2022-11-20T05:30:46;23.57;;;18.43;;
65035;SDS011;51603;49.300;8.880;2022-11-20T05:33:12;20.83;;;16.20;;
65035;SDS011;51603;49.300;8.880;2022-11-20T05:35:37;24.10;;;16.80;;
65035;SDS011;51603;49.300;8.880;2022-11-20T05:38:03;22.20;;;16.80;;
65035;SDS011;51603;49.300;8.880;2022-11-20T05:40:28;22.53;;;16.70;;
65035;SDS011;51603;49.300;8.880;2022-11-20T05:42:54;23.30;;;19.53;;
65035;SDS011;51603;49.300;8.880;2022-11-20T05:45:20;24.20;;;17.73;;
65035;SDS011;51603;49.300;8.880;2022-11-20T05:47:45;23.67;;;20.10;;
65035;SDS011;51603;49.300;8.880;2022-11-20T05:50:11;22.93;;;17.20;;
65035;SDS011;51603;49.300;8.880;2022-11-20T05:52:36;26.27;;;18.43;;
65035;SDS011;51603;49.300;8.880;2022-11-20T05:55:02;27.43;;;18.33;;
65035;SDS011;51603;49.300;8.880;2022-11-20T05:57:28;19.87;;;16.43;;
65035;SDS011;51603;49.300;8.880;2022-11-20T05:59:53;21.90;;;16.97;;
65035;SDS011;51603;49.300;8.880;2022-11-20T06:02:19;23.90;;;19.17;;
65035;SDS011;51603;49.300;8.880;2022-11-20T06:04:44;26.20;;;19.43;;
65035;SDS011;51603;49.300;8.880;2022-11-20T06:07:10;26.47;;;17.70;;
65035;SDS011;51603;49.300;8.880;2022-11-20T06:09:35;20.63;;;18.43;;
65035;SDS011;51603;49.300;8.880;2022-11-20T06:12:01;23.70;;;17.70;;
65035;SDS011;51603;49.300;8.880;2022-11-20T06:14:26;22.50;;;17.70;;
65035;SDS011;51603;49.300;8.880;2022-11-20T06:16:52;25.77;;;17.27;;
65035;SDS011;51603;49.300;8.880;2022-11-20T06:19:18;24.30;;;19.40;;
65035;SDS011;51603;49.300;8.880;2022-11-20T06:21:43;25.00;;;18.87;;
65035;SDS011;51603;49.300;8.880;2022-11-20T06:24:09;29.63;;;22.73;;
65035;SDS011;51603;49.300;8.880;2022-11-20T06:26:35;28.73;;;20.53;;
65035;SDS011;51603;49.300;8.880;2022-11-20T06:29:01;26.73;;;21.60;;
65035;SDS011;51603;49.300;8.880;2022-11-20T06:31:27;26.80;;;20.90;;
65035;SDS011;51603;49.300;8.880;2022-11-20T06:33:53;27.17;;;21.03;;
65035;SDS011;51603;49.300;8.880;2022-11-20T06:36:21;26.43;;;20.87;;
65035;SDS011;51603;49.300;8.880;2022-11-20T06:38:47;53.90;;;37.83;;
65035;SDS011;51603;49.300;8.880;2022-11-20T06:41:14;24.33;;;19.23;;
65035;SDS011;51603;49.300;8.880;2022-11-20T06:43:41;23.60;;;18.10;;
65035;SDS011;51603;49.300;8.880;2022-11-20T06:46:08;24.30;;;18.73;;
65035;SDS011;51603;49.300;8.880;2022-11-20T06:48:35;26.43;;;21.30;;
65035;SDS011;51603;49.300;8.880;2022-11-20T06:51:04;26.63;;;22.27;;
65035;SDS011;51603;49.300;8.880;2022-11-20T06:53:31;31.70;;;25.77;;
65035;SDS011;51603;49.300;8.880;2022-11-20T06:55:57;29.20;;;24.77;;
65035;SDS011;51603;49.300;8.880;2022-11-20T06:58:23;28.93;;;24.70;;
65035;SDS011;51603;49.300;8.880;2022-11-20T07:00:51;25.27;;;21.60;;
65035;SDS011;51603;49.300;8.880;2022-11-20T07:03:16;25.43;;;22.70;;
65035;SDS011;51603;49.300;8.880;2022-11-20T07:05:42;27.63;;;21.50;;
65035;SDS011;51603;49.300;8.880;2022-11-20T07:08:07;25.80;;;18.60;;
65035;SDS011;51603;49.300;8.880;2022-11-20T07:10:33;19.87;;;17.03;;
65035;SDS011;51603;49.300;8.880;2022-11-20T07:12:59;24.90;;;18.67;;
65035;SDS011;51603;49.300;8.880;2022-11-20T07:15:25;19.67;;;17.50;;
65035;SDS011;51603;49.300;8.880;2022-11-20T07:17:51;19.30;;;16.87;;
65035;SDS011;51603;49.300;8.880;2022-11-20T07:20:16;17.57;;;15.60;;
65035;SDS011;51603;49.300;8.880;2022-11-20T07:22:42;26.77;;;21.17;;
65035;SDS011;51603;49.300;8.880;2022-11-20T07:25:08;25.57;;;22.80;;
65035;SDS011;51603;49.300;8.880;2022-11-20T07:27:34;23.07;;;20.67;;
65035;SDS011;51603;49.300;8.880;2022-11-20T07:30:00;23.40;;;20.87;;
65035;SDS011;51603;49.300;8.880;2022-11-20T07:32:27;26.73;;;21.10;;
65035;SDS011;51603;49.300;8.880;2022-11-20T07:34:53;21.97;;;18.20;;
65035;SDS011;51603;49.300;8.880;2022-11-20T07:37:18;17.73;;;15.13;;
65035;SDS011;51603;49.300;8.880;2022-11-20T07:39:44;18.30;;;15.17;;
65035;SDS011;51603;49.300;8.880;2022-11-20T07:42:09;17.60;;;13.80;;
65035;SDS011;51603;49.300;8.880;2022-11-20T07:44:37;15.63;;;13.80;;
65035;SDS011;51603;49.300;8.880;2022-11-20T07:47:02;17.10;;;14.20;;
65035;SDS011;51603;49.300;8.880;2022-11-20T07:49:28;15.30;;;13.77;;
65035;SDS011;51603;49.300;8.880;2022-11-20T07:51:53;15.40;;;11.97;;
65035;SDS011;51603;49.300;8.880;2022-11-20T07:54:22;20.60;;;15.20;;
65035;SDS011;51603;49.300;8.880;2022-11-20T07:56:48;18.30;;;14.33;;
65035;SDS011;51603;49.300;8.880;2022-11-20T07:59:14;14.63;;;13.23;;
65035;SDS011;51603;49.300;8.880;2022-11-20T08:01:41;13.80;;;12.30;;
65035;SDS011;51603;49.300;8.880;2022-11-20T08:04:07;14.43;;;12.67;;
65035;SDS011;51603;49.300;8.880;2022-11-20T08:06:33;13.80;;;12.37;;
65035;SDS011;51603;49.300;8.880;2022-11-20T08:08:58;16.67;;;14.93;;
65035;SDS011;51603;49.300;8.880;2022-11-20T08:11:24;14.60;;;13.10;;
65035;SDS011;51603;49.300;8.880;2022-11-20T08:14:08;12.23;;;10.90;;
65035;SDS011;51603;49.300;8.880;2022-11-20T08:16:37;11.60;;;10.20;;
65035;SDS011;51603;49.300;8.880;2022-11-20T08:19:03;12.67;;;11.30;;
65035;SDS011;51603;49.300;8.880;2022-11-20T08:21:32;13.50;;;11.43;;
65035;SDS011;51603;49.300;8.880;2022-11-20T08:23:58;11.70;;;10.53;;
65035;SDS011;51603;49.300;8.880;2022-11-20T08:26:24;12.20;;;10.37;;
65035;SDS011;51603;49.300;8.880;2022-11-20T08:28:53;11.37;;;10.20;;
65035;SDS011;51603;49.300;8.880;2022-11-20T08:31:22;12.57;;;10.13;;
65035;SDS011;51603;49.300;8.880;2022-11-20T08:33:49;11.00;;;9.90;;
65035;SDS011;51603;49.300;8.880;2022-11-20T08:36:15;11.83;;;10.67;;
65035;SDS011;51603;49.300;8.880;2022-11-20T08:38:41;14.63;;;10.23;;
65035;SDS011;51603;49.300;8.880;2022-11-20T08:41:06;13.87;;;12.40;;
65035;SDS011;51603;49.300;8.880;2022-11-20T08:43:52;10.07;;;9.17;;
65035;SDS011;51603;49.300;8.880;2022-11-20T08:46:19;11.83;;;9.70;;
65035;SDS011;51603;49.300;8.880;2022-11-20T08:48:45;10.77;;;9.43;;
65035;SDS011;51603;49.300;8.880;2022-11-20T08:51:11;7.50;;;6.80;;
65035;SDS011;51603;49.300;8.880;2022-11-20T08:53:37;13.00;;;7.57;;
65035;SDS011;51603;49.300;8.880;2022-11-20T08:56:03;10.20;;;8.37;;
65035;SDS011;51603;49.300;8.880;2022-11-20T08:58:29;8.20;;;7.47;;
65035;SDS011;51603;49.300;8.880;2022-11-20T09:00:55;7.60;;;7.00;;
65035;SDS011;51603;49.300;8.880;2022-11-20T09:03:21;8.40;;;7.60;;
65035;SDS011;51603;49.300;8.880;2022-11-20T09:05:46;8.20;;;7.40;;
65035;SDS011;51603;49.300;8.880;2022-11-20T09:08:12;7.83;;;7.03;;
65035;SDS011;51603;49.300;8.880;2022-11-20T09:10:38;12.40;;;8.50;;
65035;SDS011;51603;49.300;8.880;2022-11-20T09:13:06;8.90;;;8.00;;
65035;SDS011;51603;49.300;8.880;2022-11-20T09:15:32;9.20;;;8.30;;
65035;SDS011;51603;49.300;8.880;2022-11-20T09:17:59;8.40;;;7.60;;
65035;SDS011;51603;49.300;8.880;2022-11-20T09:20:27;9.53;;;8.63;;
65035;SDS011;51603;49.300;8.880;2022-11-20T09:22:54;11.70;;;10.50;;
65035;SDS011;51603;49.300;8.880;2022-11-20T09:25:20;11.33;;;9.83;;
65035;SDS011;51603;49.300;8.880;2022-11-20T09:27:46;9.70;;;8.80;;
65035;SDS011;51603;49.300;8.880;2022-11-20T09:30:12;13.50;;;11.30;;
65035;SDS011;51603;49.300;8.880;2022-11-20T09:32:39;16.30;;;14.60;;
65035;SDS011;51603;49.300;8.880;2022-11-20T09:35:05;12.20;;;10.40;;
65035;SDS011;51603;49.300;8.880;2022-11-20T09:37:32;10.63;;;9.63;;
65035;SDS011;51603;49.300;8.880;2022-11-20T09:39:57;10.90;;;9.80;;
65035;SDS011;51603;49.300;8.880;2022-11-20T09:42:29;10.70;;;9.70;;
65035;SDS011;51603;49.300;8.880;2022-11-20T09:50:05;11.77;;;10.27;;
65035;SDS011;51603;49.300;8.880;2022-11-20T09:55:38;10.70;;;9.57;;
65035;SDS011;51603;49.300;8.880;2022-11-20T09:58:12;14.67;;;11.10;;
65035;SDS011;51603;49.300;8.880;2022-11-20T10:00:47;10.80;;;9.70;;
65035;SDS011;51603;49.300;8.880;2022-11-20T10:03:16;11.70;;;10.23;;
65035;SDS011;51603;49.300;8.880;2022-11-20T10:05:45;11.93;;;10.73;;
65035;SDS011;51603;49.300;8.880;2022-11-20T10:19:37;10.33;;;9.20;;
65035;SDS011;51603;49.300;8.880;2022-11-20T10:25:15;9.23;;;8.23;;
65035;SDS011;51603;49.300;8.880;2022-11-20T10:30:14;10.50;;;9.47;;
65035;SDS011;51603;49.300;8.880;2022-11-20T10:32:43;11.07;;;10.07;;
65035;SDS011;51603;49.300;8.880;2022-11-20T10:35:28;9.30;;;8.40;;
65035;SDS011;51603;49.300;8.880;2022-11-20T10:38:01;11.53;;;10.50;;
65035;SDS011;51603;49.300;8.880;2022-11-20T10:40:32;13.23;;;9.93;;
65035;SDS011;51603;49.300;8.880;2022-11-20T10:43:10;9.20;;;8.30;;
65035;SDS011;51603;49.300;8.880;2022-11-20T10:48:28;8.90;;;8.10;;
65035;SDS011;51603;49.300;8.880;2022-11-20T10:53:42;9.53;;;7.17;;
65035;SDS011;51603;49.300;8.880;2022-11-20T10:56:20;8.47;;;7.70;;
65035;SDS011;51603;49.300;8.880;2022-11-20T11:04:51;8.40;;;7.73;;
65035;SDS011;51603;49.300;8.880;2022-11-20T11:07:22;8.03;;;7.30;;
65035;SDS011;51603;49.300;8.880;2022-11-20T11:09:53;6.77;;;6.10;;
65035;SDS011;51603;49.300;8.880;2022-11-20T11:12:20;8.07;;;7.47;;
65035;SDS011;51603;49.300;8.880;2022-11-20T11:14:49;6.53;;;5.93;;
65035;SDS011;51603;49.300;8.880;2022-11-20T11:17:21;7.33;;;5.80;;
65035;SDS011;51603;49.300;8.880;2022-11-20T11:22:29;7.37;;;6.30;;
65035;SDS011;51603;49.300;8.880;2022-11-20T11:24:56;5.50;;;5.03;;
65035;SDS011;51603;49.300;8.880;2022-11-20T11:27:22;7.10;;;6.50;;
65035;SDS011;51603;49.300;8.880;2022-11-20T11:29:47;8.97;;;7.43;;
65035;SDS011;51603;49.300;8.880;2022-11-20T11:32:19;5.93;;;5.33;;
65035;SDS011;51603;49.300;8.880;2022-11-20T11:35:03;7.60;;;5.80;;
65035;SDS011;51603;49.300;8.880;2022-11-20T11:37:36;6.77;;;5.63;;
65035;SDS011;51603;49.300;8.880;2022-11-20T11:40:03;7.40;;;5.93;;
65035;SDS011;51603;49.300;8.880;2022-11-20T11:42:31;6.10;;;5.50;;
65035;SDS011;51603;49.300;8.880;2022-11-20T11:44:58;7.93;;;5.90;;
65035;SDS011;51603;49.300;8.880;2022-11-20T11:47:31;6.60;;;5.87;;
65035;SDS011;51603;49.300;8.880;2022-11-20T11:53:21;5.90;;;5.30;;
65035;SDS011;51603;49.300;8.880;2022-11-20T11:55:50;8.03;;;6.57;;
65035;SDS011;51603;49.300;8.880;2022-11-20T12:01:02;7.50;;;5.10;;
65035;SDS011;51603;49.300;8.880;2022-11-20T12:03:39;7.07;;;6.37;;
65035;SDS011;51603;49.300;8.880;2022-11-20T12:06:10;8.07;;;6.43;;
65035;SDS011;51603;49.300;8.880;2022-11-20T12:08:47;6.23;;;5.63;;
65035;SDS011;51603;49.300;8.880;2022-11-20T12:11:34;6.53;;;5.70;;
65035;SDS011;51603;49.300;8.880;2022-11-20T12:14:14;5.93;;;5.43;;
65035;SDS011;51603;49.300;8.880;2022-11-20T12:16:49;9.10;;;6.80;;
65035;SDS011;51603;49.300;8.880;2022-11-20T12:19:17;6.57;;;5.10;;
65035;SDS011;51603;49.300;8.880;2022-11-20T12:21:47;4.80;;;4.33;;
65035;SDS011;51603;49.300;8.880;2022-11-20T12:27:40;6.17;;;4.80;;
65035;SDS011;51603;49.300;8.880;2022-11-20T12:30:13;7.27;;;6.40;;
65035;SDS011;51603;49.300;8.880;2022-11-20T12:47:35;2.40;;;1.83;;
65035;SDS011;51603;49.300;8.880;2022-11-20T12:52:56;11.40;;;2.60;;
65035;SDS011;51603;49.300;8.880;2022-11-20T13:01:24;3.00;;;1.90;;
65035;SDS011;51603;49.300;8.880;2022-11-20T13:04:16;2.20;;;1.60;;
65035;SDS011;51603;49.300;8.880;2022-11-20T13:06:47;3.60;;;2.10;;
65035;SDS011;51603;49.300;8.880;2022-11-20T13:09:15;4.10;;;1.47;;
65035;SDS011;51603;49.300;8.880;2022-11-20T13:11:53;2.63;;;1.40;;
65035;SDS011;51603;49.300;8.880;2022-11-20T13:15:02;4.43;;;1.43;;
65035;SDS011;51603;49.300;8.880;2022-11-20T13:20:02;5.43;;;1.83;;
65035;SDS011;51603;49.300;8.880;2022-11-20T13:22:44;7.57;;;1.97;;
65035;SDS011;51603;49.300;8.880;2022-11-20T13:25:21;5.70;;;2.17;;
65035;SDS011;51603;49.300;8.880;2022-11-20T13:30:47;3.50;;;1.70;;
65035;SDS011;51603;49.300;8.880;2022-11-20T13:33:27;3.70;;;1.70;;
65035;SDS011;51603;49.300;8.880;2022-11-20T13:35:58;4.30;;;1.70;;
65035;SDS011;51603;49.300;8.880;2022-11-20T13:38:25;3.40;;;1.97;;
65035;SDS011;51603;49.300;8.880;2022-11-20T13:40:58;4.33;;;2.27;;
65035;SDS011;51603;49.300;8.880;2022-11-20T13:43:44;4.13;;;1.97;;
65035;SDS011;51603;49.300;8.880;2022-11-20T13:46:12;3.90;;;1.73;;
65035;SDS011;51603;49.300;8.880;2022-11-20T13:48:47;3.03;;;1.97;;
65035;SDS011;51603;49.300;8.880;2022-11-20T14:00:14;2.93;;;1.60;;
65035;SDS011;51603;49.300;8.880;2022-11-20T14:05:36;1.93;;;1.10;;
65035;SDS011;51603;49.300;8.880;2022-11-20T14:08:05;3.87;;;2.20;;
65035;SDS011;51603;49.300;8.880;2022-11-20T14:10:38;2.57;;;1.30;;
65035;SDS011;51603;49.300;8.880;2022-11-20T14:13:20;3.10;;;1.43;;
65035;SDS011;51603;49.300;8.880;2022-11-20T14:15:45;5.97;;;1.57;;
65035;SDS011;51603;49.300;8.880;2022-11-20T14:18:12;2.77;;;1.70;;
65035;SDS011;51603;49.300;8.880;2022-11-20T14:20:40;4.80;;;1.57;;
65035;SDS011;51603;49.300;8.880;2022-11-20T14:23:08;5.27;;;1.40;;
65035;SDS011;51603;49.300;8.880;2022-11-20T14:25:35;2.57;;;1.40;;
65035;SDS011;51603;49.300;8.880;2022-11-20T14:28:01;3.53;;;1.83;;
65035;SDS011;51603;49.300;8.880;2022-11-20T14:30:29;3.40;;;1.97;;
65035;SDS011;51603;49.300;8.880;2022-11-20T14:33:09;3.13;;;1.60;;
65035;SDS011;51603;49.300;8.880;2022-11-20T14:35:39;4.63;;;1.90;;
65035;SDS011;51603;49.300;8.880;2022-11-20T14:38:11;4.07;;;2.00;;
65035;SDS011;51603;49.300;8.880;2022-11-20T14:40:39;3.47;;;2.10;;
65035;SDS011;51603;49.300;8.880;2022-11-20T14:43:23;4.63;;;2.37;;
65035;SDS011;51603;49.300;8.880;2022-11-20T14:48:31;2.00;;;1.80;;
65035;SDS011;51603;49.300;8.880;2022-11-20T14:51:01;4.57;;;3.10;;
65035;SDS011;51603;49.300;8.880;2022-11-20T14:53:27;1.83;;;1.33;;
65035;SDS011;51603;49.300;8.880;2022-11-20T14:56:00;2.27;;;1.50;;
65035;SDS011;51603;49.300;8.880;2022-11-20T14:58:30;9.33;;;4.97;;
65035;SDS011;51603;49.300;8.880;2022-11-20T15:00:59;6.70;;;4.07;;
65035;SDS011;51603;49.300;8.880;2022-11-20T15:03:33;3.93;;;1.70;;
65035;SDS011;51603;49.300;8.880;2022-11-20T15:06:00;18.70;;;7.77;;
65035;SDS011;51603;49.300;8.880;2022-11-20T15:08:26;14.00;;;5.17;;
65035;SDS011;51603;49.300;8.880;2022-11-20T15:10:52;10.30;;;5.30;;
65035;SDS011;51603;49.300;8.880;2022-11-20T15:13:31;7.07;;;3.00;;
65035;SDS011;51603;49.300;8.880;2022-11-20T15:16:00;9.23;;;7.60;;
65035;SDS011;51603;49.300;8.880;2022-11-20T15:18:30;2.67;;;1.70;;
65035;SDS011;51603;49.300;8.880;2022-11-20T15:20:58;2.63;;;1.60;;
65035;SDS011;51603;49.300;8.880;2022-11-20T15:23:27;5.00;;;1.73;;
65035;SDS011;51603;49.300;8.880;2022-11-20T15:25:53;3.40;;;2.40;;
65035;SDS011;51603;49.300;8.880;2022-11-20T15:28:30;4.23;;;1.90;;
65035;SDS011;51603;49.300;8.880;2022-11-20T15:30:58;3.57;;;1.53;;
65035;SDS011;51603;49.300;8.880;2022-11-20T15:33:24;3.40;;;2.17;;
65035;SDS011;51603;49.300;8.880;2022-11-20T15:35:50;3.50;;;2.07;;
65035;SDS011;51603;49.300;8.880;2022-11-20T15:38:16;4.47;;;2.00;;
65035;SDS011;51603;49.300;8.880;2022-11-20T15:40:41;2.73;;;1.60;;
65035;SDS011;51603;49.300;8.880;2022-11-20T15:43:07;2.60;;;1.80;;
65035;SDS011;51603;49.300;8.880;2022-11-20T15:48:04;3.00;;;2.20;;
65035;SDS011;51603;49.300;8.880;2022-11-20T15:50:37;4.73;;;2.47;;
65035;SDS011;51603;49.300;8.880;2022-11-20T15:53:07;5.90;;;1.97;;
65035;SDS011;51603;49.300;8.880;2022-11-20T15:55:34;3.50;;;2.30;;
65035;SDS011;51603;49.300;8.880;2022-11-20T15:58:00;3.60;;;2.47;;
65035;SDS011;51603;49.300;8.880;2022-11-20T16:00:26;5.07;;;2.43;;
65035;SDS011;51603;49.300;8.880;2022-11-20T16:02:51;6.70;;;2.70;;
65035;SDS011;51603;49.300;8.880;2022-11-20T16:05:17;4.67;;;2.70;;
65035;SDS011;51603;49.300;8.880;2022-11-20T16:07:43;6.10;;;2.83;;
65035;SDS011;51603;49.300;8.880;2022-11-20T16:10:08;4.63;;;3.03;;
65035;SDS011;51603;49.300;8.880;2022-11-20T16:12:34;3.93;;;2.50;;
65035;SDS011;51603;49.300;8.880;2022-11-20T16:15:18;7.13;;;3.00;;